sensor_id;sensor_type;location;lat;lon;timestamp;P1;durP1;ratioP1;P2;durP2;ratioP2
18623;SDS011;9441;51.420;7.036;2023-05-09T00:00:14;13.98;;;9.77;;
18623;SDS011;9441;51.420;7.036;2023-05-09T00:01:16;18.60;;;11.35;;
18623;SDS011;9441;51.420;7.036;2023-05-09T00:02:18;15.35;;;9.20;;
18623;SDS011;9441;51.420;7.036;2023-05-09T00:03:20;16.83;;;9.15;;
18623;SDS011;9441;51.420;7.036;2023-05-09T00:04:22;15.95;;;10.00;;
18623;SDS011;9441;51.420;7.036;2023-05-09T00:05:24;19.00;;;10.15;;
18623;SDS011;9441;51.420;7.036;2023-05-09T00:06:27;15.57;;;9.13;;
18623;SDS011;9441;51.420;7.036;2023-05-09T00:07:29;14.73;;;8.48;;
18623;SDS011;9441;51.420;7.036;2023-05-09T00:08:31;12.40;;;9.25;;
18623;SDS011;9441;51.420;7.036;2023-05-09T00:09:33;13.63;;;10.20;;
18623;SDS011;9441;51.420;7.036;2023-05-09T00:10:35;11.18;;;8.25;;
18623;SDS011;9441;51.420;7.036;2023-05-09T00:11:36;16.45;;;9.13;;
18623;SDS011;9441;51.420;7.036;2023-05-09T00:12:39;14.45;;;8.38;;
18623;SDS011;9441;51.420;7.036;2023-05-09T00:13:40;14.77;;;8.70;;
18623;SDS011;9441;51.420;7.036;2023-05-09T00:14:46;16.23;;;8.75;;
18623;SDS011;9441;51.420;7.036;2023-05-09T00:15:50;13.52;;;8.55;;
18623;SDS011;9441;51.420;7.036;2023-05-09T00:16:53;18.75;;;10.82;;
18623;SDS011;9441;51.420;7.036;2023-05-09T00:17:58;14.48;;;9.18;;
18623;SDS011;9441;51.420;7.036;2023-05-09T00:19:00;15.38;;;8.40;;
18623;SDS011;9441;51.420;7.036;2023-05-09T00:20:02;12.43;;;9.00;;
18623;SDS011;9441;51.420;7.036;2023-05-09T00:21:08;14.32;;;9.10;;
18623;SDS011;9441;51.420;7.036;2023-05-09T00:22:11;14.65;;;9.18;;
18623;SDS011;9441;51.420;7.036;2023-05-09T00:23:13;21.65;;;9.82;;
18623;SDS011;9441;51.420;7.036;2023-05-09T00:24:15;15.00;;;9.55;;
18623;SDS011;9441;51.420;7.036;2023-05-09T00:25:18;14.73;;;9.50;;
18623;SDS011;9441;51.420;7.036;2023-05-09T00:26:20;13.07;;;8.82;;
18623;SDS011;9441;51.420;7.036;2023-05-09T00:27:22;21.67;;;9.90;;
18623;SDS011;9441;51.420;7.036;2023-05-09T00:28:24;14.93;;;9.73;;
18623;SDS011;9441;51.420;7.036;2023-05-09T00:29:26;18.70;;;12.15;;
18623;SDS011;9441;51.420;7.036;2023-05-09T00:30:27;23.77;;;9.95;;
18623;SDS011;9441;51.420;7.036;2023-05-09T00:31:30;19.00;;;9.98;;
18623;SDS011;9441;51.420;7.036;2023-05-09T00:32:31;18.33;;;9.82;;
18623;SDS011;9441;51.420;7.036;2023-05-09T00:33:34;18.27;;;9.65;;
18623;SDS011;9441;51.420;7.036;2023-05-09T00:34:35;19.25;;;9.77;;
18623;SDS011;9441;51.420;7.036;2023-05-09T00:35:37;18.52;;;12.05;;
18623;SDS011;9441;51.420;7.036;2023-05-09T00:36:39;22.50;;;13.95;;
18623;SDS011;9441;51.420;7.036;2023-05-09T00:37:42;18.58;;;10.27;;
18623;SDS011;9441;51.420;7.036;2023-05-09T00:38:44;18.73;;;12.60;;
18623;SDS011;9441;51.420;7.036;2023-05-09T00:39:46;16.98;;;11.55;;
18623;SDS011;9441;51.420;7.036;2023-05-09T00:40:47;15.73;;;11.48;;
18623;SDS011;9441;51.420;7.036;2023-05-09T00:41:50;16.17;;;10.73;;
18623;SDS011;9441;51.420;7.036;2023-05-09T00:42:51;16.50;;;10.55;;
18623;SDS011;9441;51.420;7.036;2023-05-09T00:43:55;23.17;;;14.15;;
18623;SDS011;9441;51.420;7.036;2023-05-09T00:44:56;20.10;;;11.25;;
18623;SDS011;9441;51.420;7.036;2023-05-09T00:45:58;19.83;;;10.63;;
18623;SDS011;9441;51.420;7.036;2023-05-09T00:47:00;25.63;;;11.50;;
18623;SDS011;9441;51.420;7.036;2023-05-09T00:48:03;16.52;;;10.93;;
18623;SDS011;9441;51.420;7.036;2023-05-09T00:49:05;17.60;;;10.52;;
18623;SDS011;9441;51.420;7.036;2023-05-09T00:50:07;17.98;;;9.45;;
18623;SDS011;9441;51.420;7.036;2023-05-09T00:51:10;17.95;;;11.18;;
18623;SDS011;9441;51.420;7.036;2023-05-09T00:52:12;17.73;;;12.20;;
18623;SDS011;9441;51.420;7.036;2023-05-09T00:53:15;20.63;;;13.52;;
18623;SDS011;9441;51.420;7.036;2023-05-09T00:54:17;16.85;;;10.45;;
18623;SDS011;9441;51.420;7.036;2023-05-09T00:55:19;20.30;;;12.95;;
18623;SDS011;9441;51.420;7.036;2023-05-09T00:56:21;18.25;;;11.18;;
18623;SDS011;9441;51.420;7.036;2023-05-09T00:57:23;14.23;;;10.68;;
18623;SDS011;9441;51.420;7.036;2023-05-09T00:58:24;19.02;;;11.82;;
18623;SDS011;9441;51.420;7.036;2023-05-09T00:59:27;14.02;;;9.88;;
18623;SDS011;9441;51.420;7.036;2023-05-09T01:00:29;17.02;;;11.75;;
18623;SDS011;9441;51.420;7.036;2023-05-09T01:01:31;17.60;;;9.82;;
18623;SDS011;9441;51.420;7.036;2023-05-09T01:02:32;19.95;;;10.60;;
18623;SDS011;9441;51.420;7.036;2023-05-09T01:03:35;17.15;;;11.68;;
18623;SDS011;9441;51.420;7.036;2023-05-09T01:04:36;18.13;;;10.63;;
18623;SDS011;9441;51.420;7.036;2023-05-09T01:05:41;22.83;;;13.88;;
18623;SDS011;9441;51.420;7.036;2023-05-09T01:06:45;17.27;;;11.65;;
18623;SDS011;9441;51.420;7.036;2023-05-09T01:07:49;20.58;;;12.57;;
18623;SDS011;9441;51.420;7.036;2023-05-09T01:08:54;22.00;;;13.63;;
18623;SDS011;9441;51.420;7.036;2023-05-09T01:09:59;21.38;;;13.10;;
18623;SDS011;9441;51.420;7.036;2023-05-09T01:11:05;24.50;;;12.93;;
18623;SDS011;9441;51.420;7.036;2023-05-09T01:12:12;25.25;;;14.73;;
18623;SDS011;9441;51.420;7.036;2023-05-09T01:13:19;22.58;;;14.60;;
18623;SDS011;9441;51.420;7.036;2023-05-09T01:14:28;24.58;;;12.40;;
18623;SDS011;9441;51.420;7.036;2023-05-09T01:15:30;26.90;;;15.13;;
18623;SDS011;9441;51.420;7.036;2023-05-09T01:16:37;25.52;;;13.60;;
18623;SDS011;9441;51.420;7.036;2023-05-09T01:17:42;18.73;;;10.88;;
18623;SDS011;9441;51.420;7.036;2023-05-09T01:18:48;22.42;;;12.27;;
18623;SDS011;9441;51.420;7.036;2023-05-09T01:19:53;22.08;;;11.65;;
18623;SDS011;9441;51.420;7.036;2023-05-09T01:20:59;25.58;;;11.95;;
18623;SDS011;9441;51.420;7.036;2023-05-09T01:22:03;19.40;;;11.18;;
18623;SDS011;9441;51.420;7.036;2023-05-09T01:23:11;20.27;;;12.07;;
18623;SDS011;9441;51.420;7.036;2023-05-09T01:24:28;24.25;;;13.63;;
18623;SDS011;9441;51.420;7.036;2023-05-09T01:25:48;25.95;;;12.43;;
18623;SDS011;9441;51.420;7.036;2023-05-09T01:27:05;25.38;;;15.85;;
18623;SDS011;9441;51.420;7.036;2023-05-09T01:28:14;25.75;;;13.13;;
18623;SDS011;9441;51.420;7.036;2023-05-09T01:29:26;19.23;;;12.70;;
18623;SDS011;9441;51.420;7.036;2023-05-09T01:30:32;22.15;;;12.73;;
18623;SDS011;9441;51.420;7.036;2023-05-09T01:31:35;25.50;;;14.80;;
18623;SDS011;9441;51.420;7.036;2023-05-09T01:32:39;26.08;;;13.02;;
18623;SDS011;9441;51.420;7.036;2023-05-09T01:33:42;21.70;;;13.60;;
18623;SDS011;9441;51.420;7.036;2023-05-09T01:34:48;23.90;;;15.00;;
18623;SDS011;9441;51.420;7.036;2023-05-09T01:35:50;22.70;;;13.52;;
18623;SDS011;9441;51.420;7.036;2023-05-09T01:36:55;22.20;;;13.10;;
18623;SDS011;9441;51.420;7.036;2023-05-09T01:37:58;26.42;;;14.50;;
18623;SDS011;9441;51.420;7.036;2023-05-09T01:39:00;20.58;;;12.73;;
18623;SDS011;9441;51.420;7.036;2023-05-09T01:40:05;18.45;;;12.00;;
18623;SDS011;9441;51.420;7.036;2023-05-09T01:41:09;23.02;;;14.57;;
18623;SDS011;9441;51.420;7.036;2023-05-09T01:42:12;24.83;;;14.68;;
18623;SDS011;9441;51.420;7.036;2023-05-09T01:43:15;18.35;;;12.27;;
18623;SDS011;9441;51.420;7.036;2023-05-09T01:44:16;21.48;;;12.40;;
18623;SDS011;9441;51.420;7.036;2023-05-09T01:45:20;26.70;;;14.43;;
18623;SDS011;9441;51.420;7.036;2023-05-09T01:46:22;25.00;;;16.10;;
18623;SDS011;9441;51.420;7.036;2023-05-09T01:47:26;23.10;;;13.32;;
18623;SDS011;9441;51.420;7.036;2023-05-09T01:48:28;20.40;;;12.73;;
18623;SDS011;9441;51.420;7.036;2023-05-09T01:49:31;24.58;;;15.63;;
18623;SDS011;9441;51.420;7.036;2023-05-09T01:50:34;22.35;;;14.02;;
18623;SDS011;9441;51.420;7.036;2023-05-09T01:51:36;21.27;;;12.95;;
18623;SDS011;9441;51.420;7.036;2023-05-09T01:52:39;21.88;;;13.15;;
18623;SDS011;9441;51.420;7.036;2023-05-09T01:53:43;22.45;;;12.13;;
18623;SDS011;9441;51.420;7.036;2023-05-09T01:54:45;22.60;;;12.48;;
18623;SDS011;9441;51.420;7.036;2023-05-09T01:55:48;24.48;;;14.10;;
18623;SDS011;9441;51.420;7.036;2023-05-09T01:56:50;20.38;;;12.45;;
18623;SDS011;9441;51.420;7.036;2023-05-09T01:57:52;23.73;;;13.80;;
18623;SDS011;9441;51.420;7.036;2023-05-09T01:58:54;25.10;;;15.07;;
18623;SDS011;9441;51.420;7.036;2023-05-09T01:59:57;25.63;;;14.43;;
18623;SDS011;9441;51.420;7.036;2023-05-09T02:01:00;25.60;;;12.98;;
18623;SDS011;9441;51.420;7.036;2023-05-09T02:02:03;22.38;;;12.00;;
18623;SDS011;9441;51.420;7.036;2023-05-09T02:03:05;21.33;;;12.45;;
18623;SDS011;9441;51.420;7.036;2023-05-09T02:04:08;19.67;;;11.77;;
18623;SDS011;9441;51.420;7.036;2023-05-09T02:05:10;20.45;;;13.00;;
18623;SDS011;9441;51.420;7.036;2023-05-09T02:06:13;19.92;;;12.60;;
18623;SDS011;9441;51.420;7.036;2023-05-09T02:07:15;22.67;;;12.75;;
18623;SDS011;9441;51.420;7.036;2023-05-09T02:08:17;18.80;;;12.85;;
18623;SDS011;9441;51.420;7.036;2023-05-09T02:09:20;19.42;;;12.73;;
18623;SDS011;9441;51.420;7.036;2023-05-09T02:10:22;22.60;;;13.65;;
18623;SDS011;9441;51.420;7.036;2023-05-09T02:11:24;22.27;;;12.23;;
18623;SDS011;9441;51.420;7.036;2023-05-09T02:12:27;20.40;;;11.90;;
18623;SDS011;9441;51.420;7.036;2023-05-09T02:13:28;28.60;;;16.25;;
18623;SDS011;9441;51.420;7.036;2023-05-09T02:14:31;19.92;;;13.15;;
18623;SDS011;9441;51.420;7.036;2023-05-09T02:15:32;21.55;;;12.63;;
18623;SDS011;9441;51.420;7.036;2023-05-09T02:16:36;23.48;;;12.43;;
18623;SDS011;9441;51.420;7.036;2023-05-09T02:17:38;24.13;;;12.98;;
18623;SDS011;9441;51.420;7.036;2023-05-09T02:18:41;25.52;;;12.70;;
18623;SDS011;9441;51.420;7.036;2023-05-09T02:19:42;23.52;;;12.57;;
18623;SDS011;9441;51.420;7.036;2023-05-09T02:20:46;19.08;;;12.30;;
18623;SDS011;9441;51.420;7.036;2023-05-09T02:21:47;25.75;;;14.27;;
18623;SDS011;9441;51.420;7.036;2023-05-09T02:22:49;21.27;;;13.95;;
18623;SDS011;9441;51.420;7.036;2023-05-09T02:23:51;23.58;;;15.32;;
18623;SDS011;9441;51.420;7.036;2023-05-09T02:24:53;26.55;;;15.45;;
18623;SDS011;9441;51.420;7.036;2023-05-09T02:25:55;25.80;;;16.13;;
18623;SDS011;9441;51.420;7.036;2023-05-09T02:26:58;19.33;;;12.75;;
18623;SDS011;9441;51.420;7.036;2023-05-09T02:28:00;22.73;;;13.30;;
18623;SDS011;9441;51.420;7.036;2023-05-09T02:29:03;17.38;;;11.95;;
18623;SDS011;9441;51.420;7.036;2023-05-09T02:30:07;26.40;;;15.70;;
18623;SDS011;9441;51.420;7.036;2023-05-09T02:31:09;28.83;;;15.73;;
18623;SDS011;9441;51.420;7.036;2023-05-09T02:32:14;20.35;;;13.38;;
18623;SDS011;9441;51.420;7.036;2023-05-09T02:33:16;20.63;;;12.93;;
18623;SDS011;9441;51.420;7.036;2023-05-09T02:34:18;27.80;;;16.92;;
18623;SDS011;9441;51.420;7.036;2023-05-09T02:35:20;27.00;;;16.75;;
18623;SDS011;9441;51.420;7.036;2023-05-09T02:36:22;27.67;;;15.90;;
18623;SDS011;9441;51.420;7.036;2023-05-09T02:37:25;29.02;;;16.42;;
18623;SDS011;9441;51.420;7.036;2023-05-09T02:38:27;30.52;;;17.40;;
18623;SDS011;9441;51.420;7.036;2023-05-09T02:39:29;28.92;;;15.88;;
18623;SDS011;9441;51.420;7.036;2023-05-09T02:40:30;20.42;;;13.43;;
18623;SDS011;9441;51.420;7.036;2023-05-09T02:41:34;19.77;;;12.65;;
18623;SDS011;9441;51.420;7.036;2023-05-09T02:42:36;25.08;;;15.68;;
18623;SDS011;9441;51.420;7.036;2023-05-09T02:43:38;29.75;;;15.65;;
18623;SDS011;9441;51.420;7.036;2023-05-09T02:44:39;26.35;;;16.40;;
18623;SDS011;9441;51.420;7.036;2023-05-09T02:45:41;22.65;;;14.75;;
18623;SDS011;9441;51.420;7.036;2023-05-09T02:46:43;22.52;;;14.35;;
18623;SDS011;9441;51.420;7.036;2023-05-09T02:47:48;28.83;;;16.45;;
18623;SDS011;9441;51.420;7.036;2023-05-09T02:48:49;24.00;;;14.45;;
18623;SDS011;9441;51.420;7.036;2023-05-09T02:49:51;29.30;;;17.08;;
18623;SDS011;9441;51.420;7.036;2023-05-09T02:50:53;32.33;;;17.85;;
18623;SDS011;9441;51.420;7.036;2023-05-09T02:51:56;33.65;;;18.42;;
18623;SDS011;9441;51.420;7.036;2023-05-09T02:52:57;28.50;;;16.38;;
18623;SDS011;9441;51.420;7.036;2023-05-09T02:54:00;30.55;;;17.13;;
18623;SDS011;9441;51.420;7.036;2023-05-09T02:55:01;33.03;;;17.50;;
18623;SDS011;9441;51.420;7.036;2023-05-09T02:56:05;29.10;;;16.80;;
18623;SDS011;9441;51.420;7.036;2023-05-09T02:57:08;33.75;;;18.55;;
18623;SDS011;9441;51.420;7.036;2023-05-09T02:58:10;28.88;;;17.63;;
18623;SDS011;9441;51.420;7.036;2023-05-09T02:59:11;34.13;;;17.75;;
18623;SDS011;9441;51.420;7.036;2023-05-09T03:00:14;30.88;;;19.25;;
18623;SDS011;9441;51.420;7.036;2023-05-09T03:01:17;32.72;;;18.30;;
18623;SDS011;9441;51.420;7.036;2023-05-09T03:02:20;31.08;;;18.42;;
18623;SDS011;9441;51.420;7.036;2023-05-09T03:03:24;32.33;;;17.17;;
18623;SDS011;9441;51.420;7.036;2023-05-09T03:04:26;29.45;;;17.60;;
18623;SDS011;9441;51.420;7.036;2023-05-09T03:05:28;34.28;;;18.08;;
18623;SDS011;9441;51.420;7.036;2023-05-09T03:06:30;33.53;;;18.33;;
18623;SDS011;9441;51.420;7.036;2023-05-09T03:07:32;31.50;;;17.95;;
18623;SDS011;9441;51.420;7.036;2023-05-09T03:08:34;34.03;;;18.52;;
18623;SDS011;9441;51.420;7.036;2023-05-09T03:09:36;34.50;;;19.08;;
18623;SDS011;9441;51.420;7.036;2023-05-09T03:10:38;37.28;;;19.67;;
18623;SDS011;9441;51.420;7.036;2023-05-09T03:11:39;34.63;;;19.88;;
18623;SDS011;9441;51.420;7.036;2023-05-09T03:12:42;35.53;;;18.88;;
18623;SDS011;9441;51.420;7.036;2023-05-09T03:13:43;34.97;;;19.70;;
18623;SDS011;9441;51.420;7.036;2023-05-09T03:14:46;36.20;;;18.85;;
18623;SDS011;9441;51.420;7.036;2023-05-09T03:15:48;38.13;;;22.27;;
18623;SDS011;9441;51.420;7.036;2023-05-09T03:16:51;35.42;;;19.73;;
18623;SDS011;9441;51.420;7.036;2023-05-09T03:18:00;35.15;;;18.38;;
18623;SDS011;9441;51.420;7.036;2023-05-09T03:19:04;34.20;;;19.52;;
18623;SDS011;9441;51.420;7.036;2023-05-09T03:20:06;34.50;;;18.58;;
18623;SDS011;9441;51.420;7.036;2023-05-09T03:21:09;40.55;;;20.10;;
18623;SDS011;9441;51.420;7.036;2023-05-09T03:22:11;35.80;;;20.67;;
18623;SDS011;9441;51.420;7.036;2023-05-09T03:23:21;31.38;;;18.98;;
18623;SDS011;9441;51.420;7.036;2023-05-09T03:24:24;35.95;;;19.60;;
18623;SDS011;9441;51.420;7.036;2023-05-09T03:25:27;39.60;;;20.17;;
18623;SDS011;9441;51.420;7.036;2023-05-09T03:26:29;33.30;;;19.00;;
18623;SDS011;9441;51.420;7.036;2023-05-09T03:27:31;36.30;;;19.00;;
18623;SDS011;9441;51.420;7.036;2023-05-09T03:28:33;33.38;;;19.05;;
18623;SDS011;9441;51.420;7.036;2023-05-09T03:29:38;37.42;;;20.98;;
18623;SDS011;9441;51.420;7.036;2023-05-09T03:30:39;36.63;;;19.75;;
18623;SDS011;9441;51.420;7.036;2023-05-09T03:31:45;37.80;;;20.08;;
18623;SDS011;9441;51.420;7.036;2023-05-09T03:32:47;33.55;;;19.02;;
18623;SDS011;9441;51.420;7.036;2023-05-09T03:33:49;39.67;;;21.42;;
18623;SDS011;9441;51.420;7.036;2023-05-09T03:34:52;38.90;;;20.13;;
18623;SDS011;9441;51.420;7.036;2023-05-09T03:35:54;42.55;;;21.67;;
18623;SDS011;9441;51.420;7.036;2023-05-09T03:36:56;37.47;;;20.38;;
18623;SDS011;9441;51.420;7.036;2023-05-09T03:37:59;38.67;;;20.42;;
18623;SDS011;9441;51.420;7.036;2023-05-09T03:39:00;39.33;;;19.65;;
18623;SDS011;9441;51.420;7.036;2023-05-09T03:40:03;38.70;;;21.40;;
18623;SDS011;9441;51.420;7.036;2023-05-09T03:41:08;37.38;;;20.13;;
18623;SDS011;9441;51.420;7.036;2023-05-09T03:42:11;44.25;;;21.80;;
18623;SDS011;9441;51.420;7.036;2023-05-09T03:43:14;38.75;;;20.92;;
18623;SDS011;9441;51.420;7.036;2023-05-09T03:44:16;46.08;;;21.77;;
18623;SDS011;9441;51.420;7.036;2023-05-09T03:45:18;39.55;;;20.67;;
18623;SDS011;9441;51.420;7.036;2023-05-09T03:46:21;42.63;;;20.48;;
18623;SDS011;9441;51.420;7.036;2023-05-09T03:47:22;41.90;;;22.50;;
18623;SDS011;9441;51.420;7.036;2023-05-09T03:48:25;45.28;;;22.05;;
18623;SDS011;9441;51.420;7.036;2023-05-09T03:49:26;48.45;;;23.33;;
18623;SDS011;9441;51.420;7.036;2023-05-09T03:50:30;46.20;;;22.77;;
18623;SDS011;9441;51.420;7.036;2023-05-09T03:51:32;42.45;;;21.88;;
18623;SDS011;9441;51.420;7.036;2023-05-09T03:52:36;39.60;;;19.40;;
18623;SDS011;9441;51.420;7.036;2023-05-09T03:53:39;46.47;;;22.25;;
18623;SDS011;9441;51.420;7.036;2023-05-09T03:54:42;50.72;;;22.55;;
18623;SDS011;9441;51.420;7.036;2023-05-09T03:55:44;56.35;;;24.83;;
18623;SDS011;9441;51.420;7.036;2023-05-09T03:56:48;54.65;;;24.02;;
18623;SDS011;9441;51.420;7.036;2023-05-09T03:57:49;56.78;;;25.20;;
18623;SDS011;9441;51.420;7.036;2023-05-09T03:58:51;59.50;;;25.27;;
18623;SDS011;9441;51.420;7.036;2023-05-09T03:59:53;58.17;;;25.17;;
18623;SDS011;9441;51.420;7.036;2023-05-09T04:00:56;64.30;;;27.90;;
18623;SDS011;9441;51.420;7.036;2023-05-09T04:01:59;62.03;;;26.95;;
18623;SDS011;9441;51.420;7.036;2023-05-09T04:03:00;53.53;;;24.23;;
18623;SDS011;9441;51.420;7.036;2023-05-09T04:04:08;62.58;;;25.10;;
18623;SDS011;9441;51.420;7.036;2023-05-09T04:05:11;60.65;;;25.80;;
18623;SDS011;9441;51.420;7.036;2023-05-09T04:06:14;55.97;;;24.83;;
18623;SDS011;9441;51.420;7.036;2023-05-09T04:07:17;58.53;;;26.67;;
18623;SDS011;9441;51.420;7.036;2023-05-09T04:08:20;61.85;;;26.48;;
18623;SDS011;9441;51.420;7.036;2023-05-09T04:09:23;59.33;;;26.50;;
18623;SDS011;9441;51.420;7.036;2023-05-09T04:10:24;59.97;;;27.00;;
18623;SDS011;9441;51.420;7.036;2023-05-09T04:11:28;54.78;;;26.67;;
18623;SDS011;9441;51.420;7.036;2023-05-09T04:12:30;58.60;;;26.73;;
18623;SDS011;9441;51.420;7.036;2023-05-09T04:13:33;61.15;;;25.80;;
18623;SDS011;9441;51.420;7.036;2023-05-09T04:14:38;55.45;;;26.95;;
18623;SDS011;9441;51.420;7.036;2023-05-09T04:15:41;63.03;;;29.23;;
18623;SDS011;9441;51.420;7.036;2023-05-09T04:16:43;60.92;;;26.38;;
18623;SDS011;9441;51.420;7.036;2023-05-09T04:17:45;71.88;;;28.00;;
18623;SDS011;9441;51.420;7.036;2023-05-09T04:18:46;64.65;;;29.15;;
18623;SDS011;9441;51.420;7.036;2023-05-09T04:19:49;75.07;;;30.35;;
18623;SDS011;9441;51.420;7.036;2023-05-09T04:20:50;70.90;;;28.88;;
18623;SDS011;9441;51.420;7.036;2023-05-09T04:21:54;76.93;;;29.73;;
18623;SDS011;9441;51.420;7.036;2023-05-09T04:22:56;80.68;;;30.88;;
18623;SDS011;9441;51.420;7.036;2023-05-09T04:23:58;73.10;;;29.38;;
18623;SDS011;9441;51.420;7.036;2023-05-09T04:25:08;74.00;;;30.38;;
18623;SDS011;9441;51.420;7.036;2023-05-09T04:26:12;63.50;;;28.23;;
18623;SDS011;9441;51.420;7.036;2023-05-09T04:27:19;79.82;;;31.88;;
18623;SDS011;9441;51.420;7.036;2023-05-09T04:28:21;88.70;;;34.70;;
18623;SDS011;9441;51.420;7.036;2023-05-09T04:29:23;87.68;;;33.20;;
18623;SDS011;9441;51.420;7.036;2023-05-09T04:30:28;84.85;;;32.42;;
18623;SDS011;9441;51.420;7.036;2023-05-09T04:31:31;88.57;;;34.97;;
18623;SDS011;9441;51.420;7.036;2023-05-09T04:32:34;80.35;;;32.90;;
18623;SDS011;9441;51.420;7.036;2023-05-09T04:33:36;84.88;;;30.80;;
18623;SDS011;9441;51.420;7.036;2023-05-09T04:34:38;88.22;;;31.48;;
18623;SDS011;9441;51.420;7.036;2023-05-09T04:35:47;80.45;;;32.05;;
18623;SDS011;9441;51.420;7.036;2023-05-09T04:36:49;85.60;;;30.88;;
18623;SDS011;9441;51.420;7.036;2023-05-09T04:37:53;74.93;;;30.98;;
18623;SDS011;9441;51.420;7.036;2023-05-09T04:38:54;78.43;;;29.50;;
18623;SDS011;9441;51.420;7.036;2023-05-09T04:39:59;70.10;;;29.08;;
18623;SDS011;9441;51.420;7.036;2023-05-09T04:41:09;66.00;;;28.83;;
18623;SDS011;9441;51.420;7.036;2023-05-09T04:42:11;69.47;;;29.08;;
18623;SDS011;9441;51.420;7.036;2023-05-09T04:43:13;71.93;;;27.50;;
18623;SDS011;9441;51.420;7.036;2023-05-09T04:44:15;62.63;;;26.67;;
18623;SDS011;9441;51.420;7.036;2023-05-09T04:45:17;67.65;;;28.70;;
18623;SDS011;9441;51.420;7.036;2023-05-09T04:46:19;69.88;;;28.63;;
18623;SDS011;9441;51.420;7.036;2023-05-09T04:47:21;62.13;;;28.08;;
18623;SDS011;9441;51.420;7.036;2023-05-09T04:48:23;62.08;;;26.45;;
18623;SDS011;9441;51.420;7.036;2023-05-09T04:49:25;67.18;;;27.60;;
18623;SDS011;9441;51.420;7.036;2023-05-09T04:50:27;61.25;;;27.45;;
18623;SDS011;9441;51.420;7.036;2023-05-09T04:51:28;61.75;;;27.48;;
18623;SDS011;9441;51.420;7.036;2023-05-09T04:52:31;61.53;;;25.95;;
18623;SDS011;9441;51.420;7.036;2023-05-09T04:53:33;62.67;;;27.77;;
18623;SDS011;9441;51.420;7.036;2023-05-09T04:54:36;58.55;;;27.42;;
18623;SDS011;9441;51.420;7.036;2023-05-09T04:55:38;56.83;;;26.25;;
18623;SDS011;9441;51.420;7.036;2023-05-09T04:56:40;56.58;;;26.17;;
18623;SDS011;9441;51.420;7.036;2023-05-09T04:57:41;63.17;;;26.95;;
18623;SDS011;9441;51.420;7.036;2023-05-09T04:58:44;65.70;;;26.92;;
18623;SDS011;9441;51.420;7.036;2023-05-09T04:59:45;60.38;;;28.10;;
18623;SDS011;9441;51.420;7.036;2023-05-09T05:00:48;54.65;;;25.45;;
18623;SDS011;9441;51.420;7.036;2023-05-09T05:01:51;58.80;;;26.70;;
18623;SDS011;9441;51.420;7.036;2023-05-09T05:02:54;52.78;;;26.08;;
18623;SDS011;9441;51.420;7.036;2023-05-09T05:03:59;51.95;;;24.98;;
18623;SDS011;9441;51.420;7.036;2023-05-09T05:05:03;51.08;;;26.55;;
18623;SDS011;9441;51.420;7.036;2023-05-09T05:06:06;56.33;;;26.27;;
18623;SDS011;9441;51.420;7.036;2023-05-09T05:07:10;61.47;;;27.00;;
18623;SDS011;9441;51.420;7.036;2023-05-09T05:08:12;52.78;;;26.10;;
18623;SDS011;9441;51.420;7.036;2023-05-09T05:09:16;68.60;;;28.23;;
18623;SDS011;9441;51.420;7.036;2023-05-09T05:10:19;58.58;;;26.65;;
18623;SDS011;9441;51.420;7.036;2023-05-09T05:11:26;63.92;;;26.63;;
18623;SDS011;9441;51.420;7.036;2023-05-09T05:12:28;56.42;;;25.67;;
18623;SDS011;9441;51.420;7.036;2023-05-09T05:13:30;56.58;;;27.40;;
18623;SDS011;9441;51.420;7.036;2023-05-09T05:14:34;55.22;;;25.90;;
18623;SDS011;9441;51.420;7.036;2023-05-09T05:15:38;60.60;;;26.70;;
18623;SDS011;9441;51.420;7.036;2023-05-09T05:16:41;65.13;;;28.63;;
18623;SDS011;9441;51.420;7.036;2023-05-09T05:17:44;60.28;;;27.38;;
18623;SDS011;9441;51.420;7.036;2023-05-09T05:18:45;59.97;;;27.27;;
18623;SDS011;9441;51.420;7.036;2023-05-09T05:19:48;58.35;;;26.95;;
18623;SDS011;9441;51.420;7.036;2023-05-09T05:20:49;62.17;;;26.35;;
18623;SDS011;9441;51.420;7.036;2023-05-09T05:21:52;60.80;;;27.27;;
18623;SDS011;9441;51.420;7.036;2023-05-09T05:22:53;63.03;;;26.55;;
18623;SDS011;9441;51.420;7.036;2023-05-09T05:23:57;59.75;;;26.20;;
18623;SDS011;9441;51.420;7.036;2023-05-09T05:25:00;57.53;;;25.90;;
18623;SDS011;9441;51.420;7.036;2023-05-09T05:26:03;53.55;;;24.92;;
18623;SDS011;9441;51.420;7.036;2023-05-09T05:27:06;52.53;;;24.75;;
18623;SDS011;9441;51.420;7.036;2023-05-09T05:28:08;56.08;;;26.92;;
18623;SDS011;9441;51.420;7.036;2023-05-09T05:29:11;57.50;;;26.38;;
18623;SDS011;9441;51.420;7.036;2023-05-09T05:30:13;57.60;;;24.20;;
18623;SDS011;9441;51.420;7.036;2023-05-09T05:31:15;59.55;;;25.33;;
18623;SDS011;9441;51.420;7.036;2023-05-09T05:32:18;52.78;;;25.55;;
18623;SDS011;9441;51.420;7.036;2023-05-09T05:33:20;51.63;;;23.80;;
18623;SDS011;9441;51.420;7.036;2023-05-09T05:34:22;53.80;;;24.48;;
18623;SDS011;9441;51.420;7.036;2023-05-09T05:35:25;53.20;;;25.20;;
18623;SDS011;9441;51.420;7.036;2023-05-09T05:36:28;49.75;;;24.33;;
18623;SDS011;9441;51.420;7.036;2023-05-09T05:37:31;47.47;;;24.60;;
18623;SDS011;9441;51.420;7.036;2023-05-09T05:38:33;48.10;;;23.38;;
18623;SDS011;9441;51.420;7.036;2023-05-09T05:39:35;49.95;;;24.77;;
18623;SDS011;9441;51.420;7.036;2023-05-09T05:40:38;49.67;;;23.40;;
18623;SDS011;9441;51.420;7.036;2023-05-09T05:41:41;47.83;;;23.73;;
18623;SDS011;9441;51.420;7.036;2023-05-09T05:42:42;47.88;;;22.27;;
18623;SDS011;9441;51.420;7.036;2023-05-09T05:43:45;44.97;;;22.45;;
18623;SDS011;9441;51.420;7.036;2023-05-09T05:44:48;38.05;;;22.02;;
18623;SDS011;9441;51.420;7.036;2023-05-09T05:45:51;41.00;;;22.63;;
18623;SDS011;9441;51.420;7.036;2023-05-09T05:46:55;42.05;;;22.02;;
18623;SDS011;9441;51.420;7.036;2023-05-09T05:48:00;40.45;;;22.20;;
18623;SDS011;9441;51.420;7.036;2023-05-09T05:49:04;36.75;;;21.38;;
18623;SDS011;9441;51.420;7.036;2023-05-09T05:50:07;38.80;;;21.35;;
18623;SDS011;9441;51.420;7.036;2023-05-09T05:51:11;37.37;;;21.50;;
18623;SDS011;9441;51.420;7.036;2023-05-09T05:52:15;43.47;;;22.80;;
18623;SDS011;9441;51.420;7.036;2023-05-09T05:53:17;39.17;;;22.20;;
18623;SDS011;9441;51.420;7.036;2023-05-09T05:54:20;40.95;;;21.35;;
18623;SDS011;9441;51.420;7.036;2023-05-09T05:55:22;38.70;;;22.23;;
18623;SDS011;9441;51.420;7.036;2023-05-09T05:56:25;40.95;;;22.85;;
18623;SDS011;9441;51.420;7.036;2023-05-09T05:57:27;40.42;;;21.90;;
18623;SDS011;9441;51.420;7.036;2023-05-09T05:58:29;37.47;;;22.05;;
18623;SDS011;9441;51.420;7.036;2023-05-09T05:59:31;39.25;;;21.70;;
18623;SDS011;9441;51.420;7.036;2023-05-09T06:00:33;36.90;;;21.63;;
18623;SDS011;9441;51.420;7.036;2023-05-09T06:01:38;37.95;;;21.70;;
18623;SDS011;9441;51.420;7.036;2023-05-09T06:02:41;43.15;;;20.20;;
18623;SDS011;9441;51.420;7.036;2023-05-09T06:03:43;36.55;;;20.95;;
18623;SDS011;9441;51.420;7.036;2023-05-09T06:04:45;36.38;;;21.48;;
18623;SDS011;9441;51.420;7.036;2023-05-09T06:05:47;37.30;;;22.67;;
18623;SDS011;9441;51.420;7.036;2023-05-09T06:06:49;37.28;;;21.48;;
18623;SDS011;9441;51.420;7.036;2023-05-09T06:07:51;34.83;;;20.52;;
18623;SDS011;9441;51.420;7.036;2023-05-09T06:08:53;31.48;;;20.23;;
18623;SDS011;9441;51.420;7.036;2023-05-09T06:09:54;32.90;;;20.00;;
18623;SDS011;9441;51.420;7.036;2023-05-09T06:10:57;34.42;;;19.45;;
18623;SDS011;9441;51.420;7.036;2023-05-09T06:11:59;36.22;;;20.15;;
18623;SDS011;9441;51.420;7.036;2023-05-09T06:13:02;33.83;;;20.50;;
18623;SDS011;9441;51.420;7.036;2023-05-09T06:14:04;34.30;;;19.58;;